sensor_id;sensor_type;location;lat;lon;timestamp;noise_LAeq;noise_LA_min;noise_LA_max;noise_LA01;noise_LA95
68279;Laerm;55108;51.790;10.960;2023-02-26T00:00:36;52.91;27.30;70.03;;
68279;Laerm;55108;51.790;10.960;2023-02-26T00:03:01;33.06;27.29;46.51;;
68279;Laerm;55108;51.790;10.960;2023-02-26T00:05:26;30.32;27.64;35.73;;
68279;Laerm;55108;51.790;10.960;2023-02-26T00:07:52;57.23;28.55;72.54;;
68279;Laerm;55108;51.790;10.960;2023-02-26T00:10:17;36.56;28.34;53.14;;
68279;Laerm;55108;51.790;10.960;2023-02-26T00:12:42;60.18;28.56;76.06;;
68279;Laerm;55108;51.790;10.960;2023-02-26T00:15:09;51.79;27.41;68.95;;
68279;Laerm;55108;51.790;10.960;2023-02-26T00:20:02;59.28;26.93;78.26;;
68279;Laerm;55108;51.790;10.960;2023-02-26T00:22:28;29.00;26.80;37.33;;
68279;Laerm;55108;51.790;10.960;2023-02-26T00:24:53;57.91;27.30;74.07;;
68279;Laerm;55108;51.790;10.960;2023-02-26T00:27:18;49.91;28.11;70.95;;
68279;Laerm;55108;51.790;10.960;2023-02-26T00:29:44;55.29;27.33;70.99;;
68279;Laerm;55108;51.790;10.960;2023-02-26T00:32:09;56.31;27.21;74.13;;
68279;Laerm;55108;51.790;10.960;2023-02-26T00:34:35;38.27;27.53;57.79;;
68279;Laerm;55108;51.790;10.960;2023-02-26T00:37:11;35.00;27.30;45.73;;
68279;Laerm;55108;51.790;10.960;2023-02-26T00:39:49;28.74;27.04;34.46;;
68279;Laerm;55108;51.790;10.960;2023-02-26T00:42:15;33.99;28.26;42.93;;
68279;Laerm;55108;51.790;10.960;2023-02-26T00:44:40;33.87;31.02;40.68;;
68279;Laerm;55108;51.790;10.960;2023-02-26T00:47:12;52.57;32.26;70.72;;
68279;Laerm;55108;51.790;10.960;2023-02-26T00:52:27;33.44;31.46;37.70;;
68279;Laerm;55108;51.790;10.960;2023-02-26T00:54:55;33.62;31.62;37.95;;
68279;Laerm;55108;51.790;10.960;2023-02-26T00:57:20;33.10;28.33;44.28;;
68279;Laerm;55108;51.790;10.960;2023-02-26T00:59:45;31.18;28.19;50.11;;
68279;Laerm;55108;51.790;10.960;2023-02-26T01:02:10;29.62;27.45;39.34;;
68279;Laerm;55108;51.790;10.960;2023-02-26T01:04:35;32.15;27.97;46.79;;
68279;Laerm;55108;51.790;10.960;2023-02-26T01:07:01;59.12;28.08;76.34;;
68279;Laerm;55108;51.790;10.960;2023-02-26T01:09:27;56.79;29.24;75.62;;
68279;Laerm;55108;51.790;10.960;2023-02-26T01:11:53;54.36;28.28;72.09;;
68279;Laerm;55108;51.790;10.960;2023-02-26T01:14:19;58.98;27.22;76.74;;
68279;Laerm;55108;51.790;10.960;2023-02-26T01:16:54;57.32;28.48;72.48;;
68279;Laerm;55108;51.790;10.960;2023-02-26T01:24:35;58.16;28.10;73.98;;
68279;Laerm;55108;51.790;10.960;2023-02-26T01:27:01;32.01;27.46;40.96;;
68279;Laerm;55108;51.790;10.960;2023-02-26T01:29:26;30.75;27.82;44.83;;
68279;Laerm;55108;51.790;10.960;2023-02-26T01:32:03;52.29;28.55;69.48;;
68279;Laerm;55108;51.790;10.960;2023-02-26T01:34:33;53.72;29.50;72.79;;
68279;Laerm;55108;51.790;10.960;2023-02-26T01:37:01;55.91;27.75;75.20;;
68279;Laerm;55108;51.790;10.960;2023-02-26T01:39:31;30.39;27.54;36.15;;
68279;Laerm;55108;51.790;10.960;2023-02-26T01:42:04;35.68;28.34;49.98;;
68279;Laerm;55108;51.790;10.960;2023-02-26T01:44:46;30.01;27.67;38.09;;
68279;Laerm;55108;51.790;10.960;2023-02-26T01:47:16;30.69;27.32;50.70;;
68279;Laerm;55108;51.790;10.960;2023-02-26T01:49:43;32.42;27.59;46.38;;
68279;Laerm;55108;51.790;10.960;2023-02-26T01:54:52;35.51;28.26;55.84;;
68279;Laerm;55108;51.790;10.960;2023-02-26T01:57:18;42.37;27.55;63.32;;
68279;Laerm;55108;51.790;10.960;2023-02-26T01:59:46;58.01;27.87;73.93;;
68279;Laerm;55108;51.790;10.960;2023-02-26T02:02:13;29.21;27.26;32.48;;
68279;Laerm;55108;51.790;10.960;2023-02-26T02:04:40;32.52;27.54;43.64;;
68279;Laerm;55108;51.790;10.960;2023-02-26T02:07:06;54.32;27.27;70.57;;
68279;Laerm;55108;51.790;10.960;2023-02-26T02:09:32;58.88;27.46;78.72;;
68279;Laerm;55108;51.790;10.960;2023-02-26T02:12:00;55.20;27.22;71.93;;
68279;Laerm;55108;51.790;10.960;2023-02-26T02:16:59;53.02;27.18;69.10;;
68279;Laerm;55108;51.790;10.960;2023-02-26T02:22:04;33.97;26.79;48.66;;
68279;Laerm;55108;51.790;10.960;2023-02-26T02:27:40;55.29;27.54;72.73;;
68279;Laerm;55108;51.790;10.960;2023-02-26T02:30:16;29.30;27.26;37.22;;
68279;Laerm;55108;51.790;10.960;2023-02-26T02:32:48;30.83;26.86;39.97;;
68279;Laerm;55108;51.790;10.960;2023-02-26T02:35:21;31.37;27.30;38.57;;
68279;Laerm;55108;51.790;10.960;2023-02-26T02:38:01;60.53;27.38;78.11;;
68279;Laerm;55108;51.790;10.960;2023-02-26T02:40:29;45.26;26.62;63.57;;
68279;Laerm;55108;51.790;10.960;2023-02-26T02:45:36;50.24;26.64;65.14;;
68279;Laerm;55108;51.790;10.960;2023-02-26T02:48:04;62.86;27.02;81.80;;
68279;Laerm;55108;51.790;10.960;2023-02-26T02:50:39;57.81;26.55;77.09;;
68279;Laerm;55108;51.790;10.960;2023-02-26T02:53:07;53.59;26.91;73.82;;
68279;Laerm;55108;51.790;10.960;2023-02-26T02:55:39;53.01;27.48;75.64;;
68279;Laerm;55108;51.790;10.960;2023-02-26T02:58:08;52.26;26.23;69.90;;
68279;Laerm;55108;51.790;10.960;2023-02-26T03:00:35;58.14;26.39;78.93;;
68279;Laerm;55108;51.790;10.960;2023-02-26T03:03:08;33.57;27.22;46.94;;
68279;Laerm;55108;51.790;10.960;2023-02-26T03:05:37;28.50;26.40;32.49;;
68279;Laerm;55108;51.790;10.960;2023-02-26T03:08:04;28.77;26.89;41.84;;
68279;Laerm;55108;51.790;10.960;2023-02-26T03:10:30;30.40;27.49;39.93;;
68279;Laerm;55108;51.790;10.960;2023-02-26T03:12:55;57.21;26.90;74.74;;
68279;Laerm;55108;51.790;10.960;2023-02-26T03:15:33;32.56;26.79;43.15;;
68279;Laerm;55108;51.790;10.960;2023-02-26T03:18:00;55.26;26.80;74.95;;
68279;Laerm;55108;51.790;10.960;2023-02-26T03:20:34;59.50;28.31;78.75;;
68279;Laerm;55108;51.790;10.960;2023-02-26T03:23:03;30.86;27.04;52.08;;
68279;Laerm;55108;51.790;10.960;2023-02-26T03:25:33;56.27;27.27;74.89;;
68279;Laerm;55108;51.790;10.960;2023-02-26T03:28:03;55.16;26.97;73.35;;
68279;Laerm;55108;51.790;10.960;2023-02-26T03:30:42;38.21;27.49;57.72;;
68279;Laerm;55108;51.790;10.960;2023-02-26T03:36:04;29.32;26.68;46.71;;
68279;Laerm;55108;51.790;10.960;2023-02-26T03:40:58;32.35;27.83;41.94;;
68279;Laerm;55108;51.790;10.960;2023-02-26T03:43:29;29.26;27.15;38.56;;
68279;Laerm;55108;51.790;10.960;2023-02-26T03:45:57;31.52;27.02;41.34;;
68279;Laerm;55108;51.790;10.960;2023-02-26T03:48:23;32.04;27.90;40.91;;
68279;Laerm;55108;51.790;10.960;2023-02-26T03:50:52;30.52;27.34;40.26;;
68279;Laerm;55108;51.790;10.960;2023-02-26T03:53:21;30.18;27.44;35.86;;
68279;Laerm;55108;51.790;10.960;2023-02-26T03:55:49;56.08;27.29;74.84;;
68279;Laerm;55108;51.790;10.960;2023-02-26T03:58:16;29.47;26.99;34.48;;
68279;Laerm;55108;51.790;10.960;2023-02-26T04:00:43;57.72;28.12;76.39;;
68279;Laerm;55108;51.790;10.960;2023-02-26T04:05:35;29.36;26.87;33.81;;
68279;Laerm;55108;51.790;10.960;2023-02-26T04:08:01;31.19;27.53;39.74;;
68279;Laerm;55108;51.790;10.960;2023-02-26T04:10:32;52.97;29.13;69.04;;
68279;Laerm;55108;51.790;10.960;2023-02-26T04:12:58;35.32;28.67;47.57;;
68279;Laerm;55108;51.790;10.960;2023-02-26T04:15:24;33.17;27.92;47.24;;
68279;Laerm;55108;51.790;10.960;2023-02-26T04:17:49;31.10;27.66;36.17;;
68279;Laerm;55108;51.790;10.960;2023-02-26T04:20:14;31.25;27.54;40.41;;
68279;Laerm;55108;51.790;10.960;2023-02-26T04:22:39;41.37;28.33;59.29;;
68279;Laerm;55108;51.790;10.960;2023-02-26T04:25:05;56.88;27.65;72.95;;
68279;Laerm;55108;51.790;10.960;2023-02-26T04:27:30;51.92;26.78;68.80;;
68279;Laerm;55108;51.790;10.960;2023-02-26T04:29:55;32.32;26.83;44.78;;
68279;Laerm;55108;51.790;10.960;2023-02-26T04:32:20;58.75;27.16;76.15;;
68279;Laerm;55108;51.790;10.960;2023-02-26T04:34:45;29.65;26.58;35.49;;
68279;Laerm;55108;51.790;10.960;2023-02-26T04:37:10;51.98;26.71;68.87;;
68279;Laerm;55108;51.790;10.960;2023-02-26T04:39:35;37.00;27.12;49.90;;
68279;Laerm;55108;51.790;10.960;2023-02-26T04:42:01;35.25;26.86;50.46;;
68279;Laerm;55108;51.790;10.960;2023-02-26T04:44:28;64.09;28.77;82.66;;
68279;Laerm;55108;51.790;10.960;2023-02-26T04:46:53;30.17;26.55;41.02;;
68279;Laerm;55108;51.790;10.960;2023-02-26T04:49:18;54.07;27.88;73.20;;
68279;Laerm;55108;51.790;10.960;2023-02-26T04:51:43;33.19;27.31;44.99;;
68279;Laerm;55108;51.790;10.960;2023-02-26T04:54:08;42.63;27.28;57.18;;
68279;Laerm;55108;51.790;10.960;2023-02-26T04:56:33;61.46;28.22;77.42;;
68279;Laerm;55108;51.790;10.960;2023-02-26T04:58:59;60.55;27.16;77.90;;
68279;Laerm;55108;51.790;10.960;2023-02-26T05:01:24;52.75;26.31;69.59;;
68279;Laerm;55108;51.790;10.960;2023-02-26T05:03:49;61.94;27.32;81.36;;
68279;Laerm;55108;51.790;10.960;2023-02-26T05:06:14;58.52;28.36;73.38;;
68279;Laerm;55108;51.790;10.960;2023-02-26T05:08:39;58.59;27.84;75.41;;
68279;Laerm;55108;51.790;10.960;2023-02-26T05:11:07;37.34;27.62;48.51;;
68279;Laerm;55108;51.790;10.960;2023-02-26T05:13:32;52.42;27.13;68.70;;
68279;Laerm;55108;51.790;10.960;2023-02-26T05:15:57;59.60;27.71;77.16;;
68279;Laerm;55108;51.790;10.960;2023-02-26T05:18:22;58.41;27.77;74.39;;
68279;Laerm;55108;51.790;10.960;2023-02-26T05:20:50;45.70;27.50;67.77;;
68279;Laerm;55108;51.790;10.960;2023-02-26T05:23:16;57.24;28.26;71.43;;
68279;Laerm;55108;51.790;10.960;2023-02-26T05:25:41;31.49;27.41;42.31;;
68279;Laerm;55108;51.790;10.960;2023-02-26T05:28:06;48.98;28.82;65.04;;
68279;Laerm;55108;51.790;10.960;2023-02-26T05:30:31;55.80;30.42;74.27;;
68279;Laerm;55108;51.790;10.960;2023-02-26T05:32:56;52.76;29.72;70.99;;
68279;Laerm;55108;51.790;10.960;2023-02-26T05:35:21;60.62;31.27;77.08;;
68279;Laerm;55108;51.790;10.960;2023-02-26T05:37:46;58.88;28.47;74.88;;
68279;Laerm;55108;51.790;10.960;2023-02-26T05:40:12;56.32;28.52;73.41;;
68279;Laerm;55108;51.790;10.960;2023-02-26T05:42:38;35.65;28.38;53.32;;
68279;Laerm;55108;51.790;10.960;2023-02-26T05:45:04;59.99;29.56;75.91;;
68279;Laerm;55108;51.790;10.960;2023-02-26T05:47:30;57.34;28.06;75.57;;
68279;Laerm;55108;51.790;10.960;2023-02-26T05:49:55;55.00;28.18;73.48;;
68279;Laerm;55108;51.790;10.960;2023-02-26T05:52:20;56.15;29.18;74.17;;
68279;Laerm;55108;51.790;10.960;2023-02-26T05:54:45;60.16;27.89;75.30;;
68279;Laerm;55108;51.790;10.960;2023-02-26T05:57:10;61.94;30.78;79.90;;
68279;Laerm;55108;51.790;10.960;2023-02-26T05:59:35;56.27;27.76;72.66;;
68279;Laerm;55108;51.790;10.960;2023-02-26T06:02:02;55.33;29.19;73.78;;
68279;Laerm;55108;51.790;10.960;2023-02-26T06:04:28;61.50;30.69;73.09;;
68279;Laerm;55108;51.790;10.960;2023-02-26T06:06:53;63.03;36.80;80.70;;
68279;Laerm;55108;51.790;10.960;2023-02-26T06:09:18;52.07;29.65;68.73;;
68279;Laerm;55108;51.790;10.960;2023-02-26T06:11:43;52.48;29.83;68.94;;
68279;Laerm;55108;51.790;10.960;2023-02-26T06:14:08;63.10;29.69;78.67;;
68279;Laerm;55108;51.790;10.960;2023-02-26T06:16:33;61.62;31.14;78.12;;
68279;Laerm;55108;51.790;10.960;2023-02-26T06:18:59;61.41;30.96;79.55;;
68279;Laerm;55108;51.790;10.960;2023-02-26T06:21:24;58.19;28.82;75.73;;
68279;Laerm;55108;51.790;10.960;2023-02-26T06:23:50;60.94;29.74;76.71;;
68279;Laerm;55108;51.790;10.960;2023-02-26T06:26:15;56.53;30.26;74.91;;
68279;Laerm;55108;51.790;10.960;2023-02-26T06:28:40;63.26;34.30;74.81;;
68279;Laerm;55108;51.790;10.960;2023-02-26T06:31:05;60.97;30.91;78.15;;
68279;Laerm;55108;51.790;10.960;2023-02-26T06:33:30;62.86;30.19;78.75;;
68279;Laerm;55108;51.790;10.960;2023-02-26T06:35:56;57.57;30.33;77.35;;
68279;Laerm;55108;51.790;10.960;2023-02-26T06:38:23;56.43;31.14;74.88;;
68279;Laerm;55108;51.790;10.960;2023-02-26T06:40:48;65.19;32.32;79.46;;
68279;Laerm;55108;51.790;10.960;2023-02-26T06:43:13;62.16;33.50;75.01;;
68279;Laerm;55108;51.790;10.960;2023-02-26T06:45:38;57.95;29.48;76.64;;
68279;Laerm;55108;51.790;10.960;2023-02-26T06:48:04;60.32;33.41;76.54;;
68279;Laerm;55108;51.790;10.960;2023-02-26T06:50:29;64.94;32.29;81.22;;
68279;Laerm;55108;51.790;10.960;2023-02-26T06:52:55;61.20;35.81;76.64;;
68279;Laerm;55108;51.790;10.960;2023-02-26T06:55:20;58.99;31.04;74.40;;
68279;Laerm;55108;51.790;10.960;2023-02-26T06:57:46;63.81;33.62;80.14;;
68279;Laerm;55108;51.790;10.960;2023-02-26T07:00:11;57.12;29.97;74.80;;
68279;Laerm;55108;51.790;10.960;2023-02-26T07:02:36;62.50;34.79;75.90;;
68279;Laerm;55108;51.790;10.960;2023-02-26T07:05:01;37.30;31.19;46.21;;
68279;Laerm;55108;51.790;10.960;2023-02-26T07:07:26;60.56;32.16;75.65;;
68279;Laerm;55108;51.790;10.960;2023-02-26T07:09:52;60.97;30.94;77.16;;
68279;Laerm;55108;51.790;10.960;2023-02-26T07:12:17;61.28;32.64;77.78;;
68279;Laerm;55108;51.790;10.960;2023-02-26T07:14:42;63.56;32.94;79.39;;
68279;Laerm;55108;51.790;10.960;2023-02-26T07:17:08;61.42;33.64;78.93;;
68279;Laerm;55108;51.790;10.960;2023-02-26T07:19:34;52.35;33.12;69.67;;
68279;Laerm;55108;51.790;10.960;2023-02-26T07:21:59;59.75;31.54;81.89;;
68279;Laerm;55108;51.790;10.960;2023-02-26T07:24:24;62.22;32.61;78.79;;
68279;Laerm;55108;51.790;10.960;2023-02-26T07:26:49;61.43;33.13;78.90;;
68279;Laerm;55108;51.790;10.960;2023-02-26T07:29:15;61.43;32.48;78.27;;
68279;Laerm;55108;51.790;10.960;2023-02-26T07:31:40;62.61;36.53;79.00;;
68279;Laerm;55108;51.790;10.960;2023-02-26T07:34:05;63.20;36.67;78.50;;
68279;Laerm;55108;51.790;10.960;2023-02-26T07:36:30;64.64;35.32;77.96;;
68279;Laerm;55108;51.790;10.960;2023-02-26T07:38:55;62.44;32.35;80.46;;
68279;Laerm;55108;51.790;10.960;2023-02-26T07:41:20;64.23;33.02;75.92;;
68279;Laerm;55108;51.790;10.960;2023-02-26T07:43:45;65.85;35.11;80.74;;
68279;Laerm;55108;51.790;10.960;2023-02-26T07:46:11;61.36;31.14;75.10;;
68279;Laerm;55108;51.790;10.960;2023-02-26T07:48:36;65.40;32.83;78.80;;
68279;Laerm;55108;51.790;10.960;2023-02-26T07:51:01;64.05;34.57;81.36;;
68279;Laerm;55108;51.790;10.960;2023-02-26T07:53:26;60.72;33.53;74.31;;
68279;Laerm;55108;51.790;10.960;2023-02-26T07:55:52;62.43;36.59;75.06;;
68279;Laerm;55108;51.790;10.960;2023-02-26T07:58:17;60.10;34.20;74.63;;
68279;Laerm;55108;51.790;10.960;2023-02-26T08:00:42;66.21;34.50;85.59;;
68279;Laerm;55108;51.790;10.960;2023-02-26T08:03:07;56.10;33.60;69.55;;
68279;Laerm;55108;51.790;10.960;2023-02-26T08:05:32;64.98;36.08;82.23;;
68279;Laerm;55108;51.790;10.960;2023-02-26T08:07:58;62.87;33.34;78.64;;
68279;Laerm;55108;51.790;10.960;2023-02-26T08:10:25;61.33;34.42;77.48;;
68279;Laerm;55108;51.790;10.960;2023-02-26T08:12:51;60.59;33.75;75.13;;
68279;Laerm;55108;51.790;10.960;2023-02-26T08:15:16;65.05;34.27;75.76;;
68279;Laerm;55108;51.790;10.960;2023-02-26T08:17:41;66.13;38.22;83.34;;
68279;Laerm;55108;51.790;10.960;2023-02-26T08:20:07;62.83;32.60;78.86;;
68279;Laerm;55108;51.790;10.960;2023-02-26T08:22:32;64.88;33.72;77.57;;
68279;Laerm;55108;51.790;10.960;2023-02-26T08:24:58;64.95;36.26;77.62;;
68279;Laerm;55108;51.790;10.960;2023-02-26T08:27:23;64.94;39.05;77.19;;
68279;Laerm;55108;51.790;10.960;2023-02-26T08:29:48;65.36;36.32;76.39;;
68279;Laerm;55108;51.790;10.960;2023-02-26T08:32:14;61.66;35.72;74.49;;
68279;Laerm;55108;51.790;10.960;2023-02-26T08:34:40;65.45;41.82;77.26;;
68279;Laerm;55108;51.790;10.960;2023-02-26T08:37:05;64.75;40.82;78.58;;
68279;Laerm;55108;51.790;10.960;2023-02-26T08:39:33;64.83;38.22;80.13;;
68279;Laerm;55108;51.790;10.960;2023-02-26T08:42:02;65.18;38.02;77.36;;
68279;Laerm;55108;51.790;10.960;2023-02-26T08:44:27;66.57;37.74;81.85;;
68279;Laerm;55108;51.790;10.960;2023-02-26T08:46:52;64.23;37.39;79.72;;
68279;Laerm;55108;51.790;10.960;2023-02-26T08:49:17;65.24;37.84;78.76;;
68279;Laerm;55108;51.790;10.960;2023-02-26T08:51:42;64.71;35.16;76.31;;
68279;Laerm;55108;51.790;10.960;2023-02-26T08:54:07;64.91;37.65;78.28;;
68279;Laerm;55108;51.790;10.960;2023-02-26T08:56:33;66.19;38.60;77.28;;
68279;Laerm;55108;51.790;10.960;2023-02-26T08:58:58;64.58;36.84;77.55;;
68279;Laerm;55108;51.790;10.960;2023-02-26T09:01:23;63.66;37.77;77.34;;
68279;Laerm;55108;51.790;10.960;2023-02-26T09:03:49;65.91;41.94;78.37;;
68279;Laerm;55108;51.790;10.960;2023-02-26T09:06:14;64.27;35.93;77.24;;
68279;Laerm;55108;51.790;10.960;2023-02-26T09:08:39;63.82;38.14;78.34;;
68279;Laerm;55108;51.790;10.960;2023-02-26T09:11:04;64.03;37.56;77.50;;
68279;Laerm;55108;51.790;10.960;2023-02-26T09:13:29;66.73;39.92;79.72;;
68279;Laerm;55108;51.790;10.960;2023-02-26T09:15:55;68.01;51.44;83.01;;
68279;Laerm;55108;51.790;10.960;2023-02-26T09:18:20;66.69;50.73;78.74;;
68279;Laerm;55108;51.790;10.960;2023-02-26T09:20:45;67.76;47.36;80.91;;
68279;Laerm;55108;51.790;10.960;2023-02-26T09:23:11;65.28;44.33;77.78;;
68279;Laerm;55108;51.790;10.960;2023-02-26T09:25:36;67.32;41.51;81.21;;
68279;Laerm;55108;51.790;10.960;2023-02-26T09:28:01;63.15;37.21;76.99;;
68279;Laerm;55108;51.790;10.960;2023-02-26T09:30:27;63.28;37.53;75.85;;
68279;Laerm;55108;51.790;10.960;2023-02-26T09:32:52;66.57;42.78;77.30;;
68279;Laerm;55108;51.790;10.960;2023-02-26T09:35:17;65.92;42.00;75.91;;
68279;Laerm;55108;51.790;10.960;2023-02-26T09:37:42;65.10;38.81;76.69;;
68279;Laerm;55108;51.790;10.960;2023-02-26T09:40:09;64.66;40.60;77.43;;
68279;Laerm;55108;51.790;10.960;2023-02-26T09:42:49;66.83;36.98;78.53;;
68279;Laerm;55108;51.790;10.960;2023-02-26T09:45:51;65.08;40.99;77.54;;
68279;Laerm;55108;51.790;10.960;2023-02-26T09:48:10;65.58;40.19;78.80;;
68279;Laerm;55108;51.790;10.960;2023-02-26T09:50:41;65.59;39.07;76.79;;
68279;Laerm;55108;51.790;10.960;2023-02-26T09:55:42;66.29;36.92;79.86;;
68279;Laerm;55108;51.790;10.960;2023-02-26T09:58:14;65.55;40.10;78.91;;
68279;Laerm;55108;51.790;10.960;2023-02-26T10:00:43;66.95;46.27;80.05;;
68279;Laerm;55108;51.790;10.960;2023-02-26T10:03:29;64.19;37.11;78.56;;
68279;Laerm;55108;51.790;10.960;2023-02-26T10:08:29;65.74;45.15;79.81;;
68279;Laerm;55108;51.790;10.960;2023-02-26T10:11:01;67.30;43.53;79.07;;
68279;Laerm;55108;51.790;10.960;2023-02-26T10:13:31;64.86;40.21;77.47;;
68279;Laerm;55108;51.790;10.960;2023-02-26T10:16:02;63.88;36.83;76.18;;
68279;Laerm;55108;51.790;10.960;2023-02-26T10:18:30;63.89;37.05;77.74;;
68279;Laerm;55108;51.790;10.960;2023-02-26T10:21:00;66.87;36.40;78.99;;
68279;Laerm;55108;51.790;10.960;2023-02-26T10:26:07;65.92;41.67;76.73;;
68279;Laerm;55108;51.790;10.960;2023-02-26T10:28:41;65.12;40.44;76.45;;
68279;Laerm;55108;51.790;10.960;2023-02-26T10:31:54;67.91;39.07;81.21;;
68279;Laerm;55108;51.790;10.960;2023-02-26T10:34:17;65.51;38.03;78.77;;
68279;Laerm;55108;51.790;10.960;2023-02-26T10:39:20;67.47;44.29;75.47;;
68279;Laerm;55108;51.790;10.960;2023-02-26T10:41:45;64.49;40.75;77.33;;
68279;Laerm;55108;51.790;10.960;2023-02-26T10:51:44;65.01;39.88;80.60;;
68279;Laerm;55108;51.790;10.960;2023-02-26T10:54:14;66.94;45.80;78.72;;
68279;Laerm;55108;51.790;10.960;2023-02-26T10:56:40;65.22;40.52;78.80;;
68279;Laerm;55108;51.790;10.960;2023-02-26T10:59:05;64.74;38.53;77.10;;
68279;Laerm;55108;51.790;10.960;2023-02-26T11:01:30;66.66;36.94;78.65;;
68279;Laerm;55108;51.790;10.960;2023-02-26T11:06:26;67.35;48.46;77.01;;
68279;Laerm;55108;51.790;10.960;2023-02-26T11:08:53;64.30;35.49;77.59;;
68279;Laerm;55108;51.790;10.960;2023-02-26T11:11:53;64.99;38.15;75.86;;
68279;Laerm;55108;51.790;10.960;2023-02-26T11:14:11;67.26;43.77;77.64;;
68279;Laerm;55108;51.790;10.960;2023-02-26T11:16:40;65.91;45.84;77.33;;
68279;Laerm;55108;51.790;10.960;2023-02-26T11:19:06;65.56;37.78;77.21;;
68279;Laerm;55108;51.790;10.960;2023-02-26T11:21:38;63.21;36.62;77.03;;
68279;Laerm;55108;51.790;10.960;2023-02-26T11:24:06;65.41;38.36;76.41;;
68279;Laerm;55108;51.790;10.960;2023-02-26T11:26:33;65.03;38.24;76.21;;
68279;Laerm;55108;51.790;10.960;2023-02-26T11:28:58;64.52;38.39;78.43;;
68279;Laerm;55108;51.790;10.960;2023-02-26T11:31:24;62.44;35.53;75.66;;
68279;Laerm;55108;51.790;10.960;2023-02-26T11:33:53;66.83;39.60;76.91;;
68279;Laerm;55108;51.790;10.960;2023-02-26T11:36:23;64.82;37.85;79.00;;
68279;Laerm;55108;51.790;10.960;2023-02-26T11:38:53;65.37;36.87;79.61;;
68279;Laerm;55108;51.790;10.960;2023-02-26T11:41:19;66.07;39.06;78.23;;
68279;Laerm;55108;51.790;10.960;2023-02-26T11:43:47;65.11;40.89;76.56;;
68279;Laerm;55108;51.790;10.960;2023-02-26T11:46:12;65.87;44.52;77.81;;
68279;Laerm;55108;51.790;10.960;2023-02-26T11:48:47;62.53;39.62;76.69;;
68279;Laerm;55108;51.790;10.960;2023-02-26T11:51:14;65.57;38.74;78.34;;
68279;Laerm;55108;51.790;10.960;2023-02-26T11:53:47;64.48;32.54;75.95;;
68279;Laerm;55108;51.790;10.960;2023-02-26T11:56:14;66.42;37.13;77.55;;
68279;Laerm;55108;51.790;10.960;2023-02-26T11:58:40;65.29;35.76;78.03;;
68279;Laerm;55108;51.790;10.960;2023-02-26T12:01:07;64.89;37.24;77.84;;
68279;Laerm;55108;51.790;10.960;2023-02-26T12:03:36;63.16;35.64;78.53;;
68279;Laerm;55108;51.790;10.960;2023-02-26T12:06:04;64.98;40.35;75.45;;
68279;Laerm;55108;51.790;10.960;2023-02-26T12:08:31;63.86;36.46;77.71;;
68279;Laerm;55108;51.790;10.960;2023-02-26T12:16:13;66.36;42.02;76.64;;
68279;Laerm;55108;51.790;10.960;2023-02-26T12:19:00;65.06;36.59;76.47;;
68279;Laerm;55108;51.790;10.960;2023-02-26T12:21:46;63.88;35.50;77.71;;
68279;Laerm;55108;51.790;10.960;2023-02-26T12:26:49;64.49;37.80;75.11;;
68279;Laerm;55108;51.790;10.960;2023-02-26T12:29:31;65.70;35.99;77.32;;
68279;Laerm;55108;51.790;10.960;2023-02-26T12:32:03;63.25;38.64;78.34;;
68279;Laerm;55108;51.790;10.960;2023-02-26T12:34:45;66.08;36.58;77.90;;
68279;Laerm;55108;51.790;10.960;2023-02-26T12:37:33;66.39;40.90;77.24;;
68279;Laerm;55108;51.790;10.960;2023-02-26T12:48:08;66.11;41.80;79.60;;
68279;Laerm;55108;51.790;10.960;2023-02-26T12:50:39;66.41;35.32;78.82;;
68279;Laerm;55108;51.790;10.960;2023-02-26T12:53:13;64.53;38.68;77.44;;
68279;Laerm;55108;51.790;10.960;2023-02-26T13:01:07;62.73;39.12;76.32;;
68279;Laerm;55108;51.790;10.960;2023-02-26T13:14:19;66.33;44.24;79.51;;
68279;Laerm;55108;51.790;10.960;2023-02-26T13:16:50;64.64;36.05;77.26;;
68279;Laerm;55108;51.790;10.960;2023-02-26T13:19:33;66.10;40.40;79.39;;
68279;Laerm;55108;51.790;10.960;2023-02-26T13:22:09;65.80;42.72;80.64;;
68279;Laerm;55108;51.790;10.960;2023-02-26T13:24:40;64.67;40.70;75.14;;
68279;Laerm;55108;51.790;10.960;2023-02-26T13:27:06;66.52;44.46;77.11;;
68279;Laerm;55108;51.790;10.960;2023-02-26T13:30:21;66.55;42.13;76.93;;
68279;Laerm;55108;51.790;10.960;2023-02-26T13:32:23;65.28;39.47;76.11;;
68279;Laerm;55108;51.790;10.960;2023-02-26T13:34:59;65.52;37.26;77.87;;
68279;Laerm;55108;51.790;10.960;2023-02-26T13:37:33;65.73;38.11;76.52;;
68279;Laerm;55108;51.790;10.960;2023-02-26T13:42:35;66.47;38.34;77.28;;
68279;Laerm;55108;51.790;10.960;2023-02-26T13:45:06;64.37;37.35;78.60;;
68279;Laerm;55108;51.790;10.960;2023-02-26T13:50:25;67.27;45.09;78.16;;
68279;Laerm;55108;51.790;10.960;2023-02-26T13:52:53;65.79;38.36;78.30;;
68279;Laerm;55108;51.790;10.960;2023-02-26T13:55:42;64.85;38.70;74.62;;
68279;Laerm;55108;51.790;10.960;2023-02-26T14:01:05;65.23;37.77;76.97;;
68279;Laerm;55108;51.790;10.960;2023-02-26T14:03:33;66.80;42.12;80.91;;
68279;Laerm;55108;51.790;10.960;2023-02-26T14:08:43;64.52;37.73;76.95;;
68279;Laerm;55108;51.790;10.960;2023-02-26T14:14:08;66.60;36.20;78.57;;
68279;Laerm;55108;51.790;10.960;2023-02-26T14:16:34;66.56;43.90;79.09;;
68279;Laerm;55108;51.790;10.960;2023-02-26T14:19:04;64.33;37.77;75.76;;
68279;Laerm;55108;51.790;10.960;2023-02-26T14:23:55;63.01;34.65;75.94;;
68279;Laerm;55108;51.790;10.960;2023-02-26T14:26:21;65.95;41.82;80.23;;
68279;Laerm;55108;51.790;10.960;2023-02-26T14:28:54;64.07;43.22;74.83;;
68279;Laerm;55108;51.790;10.960;2023-02-26T14:31:21;63.76;36.12;77.52;;
68279;Laerm;55108;51.790;10.960;2023-02-26T14:36:20;67.19;37.69;80.08;;
68279;Laerm;55108;51.790;10.960;2023-02-26T14:38:50;62.83;37.40;77.30;;
68279;Laerm;55108;51.790;10.960;2023-02-26T14:41:24;65.29;39.29;77.20;;
68279;Laerm;55108;51.790;10.960;2023-02-26T14:43:54;65.30;37.46;77.98;;
68279;Laerm;55108;51.790;10.960;2023-02-26T14:46:22;64.95;43.97;77.29;;
68279;Laerm;55108;51.790;10.960;2023-02-26T14:48:48;67.48;42.10;77.79;;
68279;Laerm;55108;51.790;10.960;2023-02-26T14:51:21;66.35;38.77;76.69;;
68279;Laerm;55108;51.790;10.960;2023-02-26T14:54:01;66.76;36.91;80.12;;
68279;Laerm;55108;51.790;10.960;2023-02-26T14:56:46;65.82;39.34;79.34;;
68279;Laerm;55108;51.790;10.960;2023-02-26T15:01:52;65.26;39.56;76.29;;
68279;Laerm;55108;51.790;10.960;2023-02-26T15:04:29;66.72;41.77;77.50;;
68279;Laerm;55108;51.790;10.960;2023-02-26T15:12:38;67.96;39.59;83.53;;
68279;Laerm;55108;51.790;10.960;2023-02-26T15:15:12;75.91;37.86;96.46;;
68279;Laerm;55108;51.790;10.960;2023-02-26T15:22:45;66.57;39.13;77.84;;
68279;Laerm;55108;51.790;10.960;2023-02-26T15:25:17;65.70;43.17;76.46;;
68279;Laerm;55108;51.790;10.960;2023-02-26T15:27:46;65.06;40.55;76.54;;
68279;Laerm;55108;51.790;10.960;2023-02-26T15:30:13;64.57;39.81;75.48;;
68279;Laerm;55108;51.790;10.960;2023-02-26T15:32:38;64.79;39.68;78.25;;